createdAt,value
2023-06-20T00:00:58.795Z,7.70
2023-06-20T00:03:44.326Z,7.07
2023-06-20T00:06:11.458Z,7.85
2023-06-20T00:08:38.295Z,7.07
2023-06-20T00:11:05.461Z,7.13
2023-06-20T00:13:32.319Z,7.25
2023-06-20T00:15:59.383Z,7.25
2023-06-20T00:18:26.395Z,7.20
2023-06-20T00:20:55.156Z,7.78
2023-06-20T00:23:22.746Z,7.32
2023-06-20T00:25:49.989Z,7.80
2023-06-20T00:28:19.798Z,7.32
2023-06-20T00:30:46.927Z,7.90
2023-06-20T00:33:14.012Z,8.02
2023-06-20T00:35:41.146Z,9.15
2023-06-20T00:38:07.938Z,7.95
2023-06-20T00:40:35.110Z,7.72
2023-06-20T00:43:01.952Z,8.23
2023-06-20T00:45:36.433Z,7.50
2023-06-20T00:48:07.332Z,8.02
2023-06-20T00:50:35.816Z,8.15
2023-06-20T00:53:07.026Z,7.60
2023-06-20T00:55:35.317Z,7.97
2023-06-20T00:58:03.320Z,8.05
2023-06-20T01:00:33.843Z,7.57
2023-06-20T01:03:03.254Z,7.43
2023-06-20T01:05:30.573Z,7.63
2023-06-20T01:08:22.514Z,7.68
2023-06-20T01:11:08.472Z,7.43
2023-06-20T01:13:38.518Z,8.23
2023-06-20T01:16:18.360Z,8.07
2023-06-20T01:18:48.056Z,7.78
2023-06-20T01:21:18.656Z,8.02
2023-06-20T01:24:05.133Z,7.32
2023-06-20T01:26:38.988Z,7.32
2023-06-20T01:29:21.658Z,8.13
2023-06-20T01:31:54.558Z,8.02
2023-06-20T01:34:24.131Z,7.80
2023-06-20T01:36:54.945Z,7.90
2023-06-20T01:39:37.311Z,7.95
2023-06-20T01:42:04.736Z,7.55
2023-06-20T01:44:32.416Z,8.80
2023-06-20T01:46:59.749Z,7.75
2023-06-20T01:49:26.917Z,8.20
2023-06-20T01:51:57.061Z,8.27
2023-06-20T01:54:29.031Z,8.15
2023-06-20T01:56:58.744Z,8.52
2023-06-20T01:59:26.798Z,8.25
2023-06-20T02:01:53.991Z,7.85
2023-06-20T02:04:20.794Z,8.18
2023-06-20T02:06:48.094Z,8.90
2023-06-20T02:09:14.994Z,8.52
2023-06-20T02:11:42.061Z,8.63
2023-06-20T02:14:08.834Z,7.97
2023-06-20T02:16:36.268Z,7.30
2023-06-20T02:19:07.428Z,8.27
2023-06-20T02:21:38.505Z,8.35
2023-06-20T02:24:08.354Z,8.00
2023-06-20T02:26:37.247Z,8.27
2023-06-20T02:29:06.385Z,7.57
2023-06-20T02:31:37.744Z,7.80
2023-06-20T02:34:06.116Z,7.82
2023-06-20T02:36:33.253Z,8.23
2023-06-20T02:39:00.031Z,7.15
2023-06-20T02:41:27.085Z,7.47
2023-06-20T02:43:53.848Z,7.55
2023-06-20T02:46:34.789Z,7.63
2023-06-20T02:49:01.735Z,8.48
2023-06-20T02:51:34.319Z,8.20
2023-06-20T02:54:17.359Z,8.50
2023-06-20T02:56:44.569Z,7.80
2023-06-20T02:59:11.430Z,8.25
2023-06-20T03:01:38.548Z,7.28
2023-06-20T03:04:05.680Z,7.53
2023-06-20T03:06:33.670Z,8.10
2023-06-20T03:09:04.196Z,8.57
2023-06-20T03:11:31.373Z,7.65
2023-06-20T03:13:58.149Z,8.23
2023-06-20T03:16:27.840Z,8.05
2023-06-20T03:18:55.356Z,7.90
2023-06-20T03:21:29.366Z,8.10
2023-06-20T03:23:56.837Z,8.37
2023-06-20T03:26:24.001Z,8.40
2023-06-20T03:28:50.762Z,8.15
2023-06-20T03:31:18.106Z,8.07
2023-06-20T03:33:44.893Z,7.53
2023-06-20T03:36:12.115Z,8.52
2023-06-20T03:38:40.949Z,7.53
2023-06-20T03:41:08.024Z,7.75
2023-06-20T03:43:34.970Z,8.32
2023-06-20T03:46:02.066Z,8.02
2023-06-20T03:48:28.836Z,8.40
2023-06-20T03:50:55.883Z,8.65
2023-06-20T03:53:22.666Z,7.82
2023-06-20T03:55:49.868Z,8.23
2023-06-20T03:58:16.708Z,8.30
2023-06-20T04:00:43.842Z,8.23
2023-06-20T04:03:10.747Z,8.95
2023-06-20T04:05:38.825Z,8.68
2023-06-20T04:08:05.615Z,7.90
2023-06-20T04:10:32.689Z,8.30
2023-06-20T04:12:59.538Z,9.05
2023-06-20T04:15:26.814Z,10.38
2023-06-20T04:17:53.889Z,8.50
2023-06-20T04:20:21.179Z,9.18
2023-06-20T04:22:47.985Z,8.80
2023-06-20T04:25:15.417Z,9.30
2023-06-20T04:27:42.532Z,8.73
2023-06-20T04:30:09.877Z,8.35
2023-06-20T04:32:38.150Z,8.85
2023-06-20T04:35:05.782Z,9.52
2023-06-20T04:37:32.571Z,8.32
2023-06-20T04:39:59.690Z,8.35
2023-06-20T04:42:26.511Z,9.65
2023-06-20T04:44:53.662Z,8.43
2023-06-20T04:47:20.535Z,8.23
2023-06-20T04:49:47.685Z,8.70
2023-06-20T04:52:14.493Z,8.50
2023-06-20T04:54:41.618Z,8.82
2023-06-20T04:57:08.441Z,8.60
2023-06-20T04:59:39.490Z,8.93
2023-06-20T05:02:07.193Z,8.30
2023-06-20T05:04:34.479Z,8.65
2023-06-20T05:07:03.368Z,8.10
2023-06-20T05:09:30.483Z,9.05
2023-06-20T05:12:00.421Z,8.60
2023-06-20T05:14:31.523Z,9.23
2023-06-20T05:16:58.351Z,8.40
2023-06-20T05:19:25.473Z,8.50
2023-06-20T05:21:52.291Z,8.43
2023-06-20T05:24:19.436Z,8.63
2023-06-20T05:26:46.264Z,8.10
2023-06-20T05:29:13.421Z,8.68
2023-06-20T05:31:41.356Z,8.95
2023-06-20T05:34:08.918Z,8.13
2023-06-20T05:36:35.681Z,8.00
2023-06-20T05:39:02.975Z,8.30
2023-06-20T05:41:29.763Z,9.02
2023-06-20T05:43:56.884Z,8.02
2023-06-20T05:46:23.724Z,8.13
2023-06-20T05:48:50.812Z,8.52
2023-06-20T05:51:17.636Z,7.75
2023-06-20T05:53:44.943Z,8.55
2023-06-20T05:56:12.052Z,8.35
2023-06-20T05:58:39.187Z,8.00
2023-06-20T06:01:05.945Z,8.55
2023-06-20T06:03:36.295Z,9.55
2023-06-20T06:06:04.790Z,7.80
2023-06-20T06:08:34.894Z,8.88
2023-06-20T06:11:01.767Z,8.40
2023-06-20T06:13:29.295Z,7.50
2023-06-20T06:16:00.736Z,8.63
2023-06-20T06:18:28.610Z,9.05
2023-06-20T06:20:55.438Z,8.15
2023-06-20T06:23:22.524Z,7.72
2023-06-20T06:25:49.350Z,8.18
2023-06-20T06:28:16.630Z,8.85
2023-06-20T06:30:43.435Z,8.18
2023-06-20T06:33:11.146Z,6.82
2023-06-20T06:35:38.014Z,7.65
2023-06-20T06:38:05.274Z,7.75
2023-06-20T06:40:32.651Z,8.57
2023-06-20T06:43:00.225Z,8.38
2023-06-20T06:45:27.389Z,7.72
2023-06-20T06:47:56.055Z,8.15
2023-06-20T06:50:22.947Z,7.38
2023-06-20T06:52:50.172Z,7.80
2023-06-20T06:55:17.105Z,6.93
2023-06-20T06:57:44.196Z,7.57
2023-06-20T07:00:12.507Z,7.60
2023-06-20T07:02:42.505Z,6.35
2023-06-20T07:05:10.462Z,7.28
2023-06-20T07:07:37.605Z,6.90
2023-06-20T07:10:04.914Z,7.10
2023-06-20T07:12:32.309Z,7.05
2023-06-20T07:14:59.161Z,7.43
2023-06-20T07:17:26.999Z,7.43
2023-06-20T07:19:54.097Z,6.88
2023-06-20T07:22:21.248Z,7.00
2023-06-20T07:24:51.934Z,7.32
2023-06-20T07:27:20.475Z,6.65
2023-06-20T07:29:47.286Z,5.93
2023-06-20T07:32:15.774Z,7.07
2023-06-20T07:34:42.834Z,6.40
2023-06-20T07:37:10.045Z,7.13
2023-06-20T07:39:41.314Z,7.10
2023-06-20T07:42:08.951Z,6.65
2023-06-20T07:44:35.720Z,6.57
2023-06-20T07:47:02.904Z,6.38
2023-06-20T07:49:29.741Z,5.70
2023-06-20T07:51:57.000Z,6.25
2023-06-20T07:54:23.926Z,6.20
2023-06-20T07:56:51.103Z,6.07
2023-06-20T07:59:17.971Z,5.78
2023-06-20T08:01:45.286Z,5.65
2023-06-20T08:04:12.169Z,5.70
2023-06-20T08:06:39.391Z,5.75
2023-06-20T08:09:06.599Z,5.53
2023-06-20T08:11:35.684Z,5.22
2023-06-20T08:14:02.732Z,5.55
2023-06-20T08:16:30.030Z,5.75
2023-06-20T08:18:56.940Z,5.93
2023-06-20T08:21:24.040Z,5.60
2023-06-20T08:23:50.887Z,5.40
2023-06-20T08:26:18.071Z,5.25
2023-06-20T08:28:44.912Z,5.32
2023-06-20T08:31:12.131Z,4.95
2023-06-20T08:33:39.031Z,5.45
2023-06-20T08:36:06.250Z,5.28
2023-06-20T08:38:33.290Z,5.18
2023-06-20T08:41:00.437Z,5.22
2023-06-20T08:43:30.643Z,5.43
2023-06-20T08:45:58.065Z,4.95
2023-06-20T08:48:24.983Z,5.53
2023-06-20T08:50:52.411Z,5.07
2023-06-20T08:53:22.682Z,5.55
2023-06-20T08:55:51.361Z,4.70
2023-06-20T08:58:18.123Z,5.10
2023-06-20T09:00:47.173Z,5.10
2023-06-20T09:03:14.365Z,5.03
2023-06-20T09:05:46.972Z,4.72
2023-06-20T09:08:15.035Z,4.95
2023-06-20T09:10:43.045Z,5.15
2023-06-20T09:13:11.773Z,5.43
2023-06-20T09:15:39.478Z,4.80
2023-06-20T09:18:09.096Z,4.65
2023-06-20T09:20:36.562Z,4.55
2023-06-20T09:23:03.543Z,4.53
2023-06-20T09:25:31.789Z,5.13
2023-06-20T09:27:59.120Z,4.50
2023-06-20T09:30:31.576Z,4.55
2023-06-20T09:33:03.139Z,4.25
2023-06-20T09:35:31.122Z,4.68
2023-06-20T09:37:57.919Z,5.53
2023-06-20T09:40:25.404Z,5.00
2023-06-20T09:42:56.983Z,5.15
2023-06-20T09:45:24.173Z,5.22
2023-06-20T09:47:51.165Z,5.13
2023-06-20T09:50:20.075Z,5.07
2023-06-20T09:52:47.970Z,5.03
2023-06-20T09:55:16.076Z,4.88
2023-06-20T09:57:45.066Z,4.38
2023-06-20T10:00:16.255Z,4.95
2023-06-20T10:02:45.997Z,4.65
2023-06-20T10:05:17.391Z,5.05
2023-06-20T10:07:45.485Z,5.38
2023-06-20T10:10:13.573Z,4.78
2023-06-20T10:12:41.127Z,4.88
2023-06-20T10:15:09.135Z,5.40
2023-06-20T10:17:40.524Z,5.30
2023-06-20T10:20:09.120Z,4.93
2023-06-20T10:22:45.188Z,5.05
2023-06-20T10:25:16.267Z,5.15
2023-06-20T10:27:55.735Z,4.63
2023-06-20T10:30:47.742Z,5.45
2023-06-20T10:33:17.645Z,4.88
2023-06-20T10:35:49.517Z,5.03
2023-06-20T10:38:16.380Z,4.68
2023-06-20T10:40:44.244Z,5.00
2023-06-20T10:43:18.418Z,4.55
2023-06-20T10:45:58.384Z,4.57
2023-06-20T10:48:25.601Z,4.30
2023-06-20T10:50:55.584Z,5.18
2023-06-20T10:53:22.411Z,4.70
2023-06-20T10:55:49.802Z,5.07
2023-06-20T10:58:31.334Z,4.45
2023-06-20T11:00:59.506Z,4.85
2023-06-20T11:03:26.537Z,4.32
2023-06-20T11:05:55.342Z,4.70
2023-06-20T11:08:23.380Z,4.60
2023-06-20T11:10:50.459Z,4.95
2023-06-20T11:13:17.261Z,4.78
2023-06-20T11:15:44.402Z,4.55
2023-06-20T11:18:11.415Z,4.68
2023-06-20T11:20:43.070Z,4.45
2023-06-20T11:23:14.151Z,4.75
2023-06-20T11:25:45.698Z,4.43
2023-06-20T11:28:13.922Z,4.78
2023-06-20T11:30:45.782Z,4.07
2023-06-20T11:33:16.845Z,4.70
2023-06-20T11:35:56.133Z,4.20
2023-06-20T11:38:28.313Z,4.53
2023-06-20T11:41:04.840Z,3.97
2023-06-20T11:43:36.897Z,4.35
2023-06-20T11:46:04.147Z,4.38
2023-06-20T11:48:31.253Z,4.90
2023-06-20T11:50:58.418Z,5.00
2023-06-20T11:53:36.366Z,4.22
2023-06-20T11:56:13.282Z,4.47
2023-06-20T11:58:44.797Z,4.13
2023-06-20T12:01:18.918Z,4.30
2023-06-20T12:03:46.393Z,5.10
2023-06-20T12:06:36.375Z,4.60
2023-06-20T12:09:09.718Z,4.47
2023-06-20T12:11:46.482Z,4.90
2023-06-20T12:14:13.648Z,5.05
2023-06-20T12:16:40.715Z,4.30
2023-06-20T12:19:07.511Z,4.63
2023-06-20T12:21:34.649Z,4.90
2023-06-20T12:24:01.500Z,4.32
2023-06-20T12:26:28.749Z,4.45
2023-06-20T12:28:55.654Z,4.55
2023-06-20T12:31:22.769Z,4.43
2023-06-20T12:33:49.620Z,4.35
2023-06-20T12:36:17.207Z,4.38
2023-06-20T12:38:44.324Z,4.90
2023-06-20T12:41:11.778Z,4.03
2023-06-20T12:43:38.923Z,4.32
2023-06-20T12:46:06.161Z,4.75
2023-06-20T12:48:33.047Z,4.78
2023-06-20T12:51:00.153Z,4.63
2023-06-20T12:53:28.098Z,4.57
2023-06-20T12:55:59.087Z,4.30
2023-06-20T12:58:26.113Z,4.70
2023-06-20T13:00:53.356Z,4.85
2023-06-20T13:03:20.204Z,4.78
2023-06-20T13:05:47.728Z,4.45
2023-06-20T13:08:14.614Z,4.45
2023-06-20T13:10:42.768Z,4.00
2023-06-20T13:13:09.560Z,4.05
2023-06-20T13:15:36.739Z,4.25
2023-06-20T13:18:05.812Z,4.30
2023-06-20T13:20:35.743Z,4.97
2023-06-20T13:23:03.411Z,4.60
2023-06-20T13:25:31.566Z,3.80
2023-06-20T13:27:58.343Z,4.60
2023-06-20T13:30:26.289Z,4.50
2023-06-20T13:32:53.491Z,4.20
2023-06-20T13:35:23.000Z,4.32
2023-06-20T13:37:50.980Z,4.13
2023-06-20T13:40:18.317Z,4.10
2023-06-20T13:42:47.033Z,4.20
2023-06-20T13:45:15.280Z,4.28
2023-06-20T13:47:42.458Z,4.53
2023-06-20T13:50:10.499Z,4.00
2023-06-20T13:52:37.775Z,4.38
2023-06-20T13:55:06.263Z,4.10
2023-06-20T13:57:33.464Z,3.80
2023-06-20T14:00:01.284Z,4.07
2023-06-20T14:02:28.575Z,4.55
2023-06-20T14:04:55.792Z,4.30
2023-06-20T14:07:24.031Z,4.20
2023-06-20T14:09:51.262Z,5.05
2023-06-20T14:12:18.230Z,5.00
2023-06-20T14:14:45.337Z,6.03
2023-06-20T14:17:12.145Z,8.32
2023-06-20T14:19:39.339Z,6.28
2023-06-20T14:22:06.307Z,6.10
2023-06-20T14:24:34.309Z,6.88
2023-06-20T14:27:01.173Z,8.25
2023-06-20T14:29:28.338Z,7.80
2023-06-20T14:31:55.303Z,7.65
2023-06-20T14:34:22.511Z,8.10
2023-06-20T14:36:49.339Z,8.50
2023-06-20T14:39:16.503Z,8.30
2023-06-20T14:41:43.429Z,9.43
2023-06-20T14:44:10.581Z,8.25
2023-06-20T14:46:37.688Z,8.63
2023-06-20T14:49:04.783Z,8.18
2023-06-20T14:51:31.591Z,7.50
2023-06-20T14:53:58.853Z,7.28
2023-06-20T14:56:25.841Z,7.97
2023-06-20T14:58:52.967Z,7.13
2023-06-20T15:01:19.800Z,8.02
2023-06-20T15:03:47.031Z,8.27
2023-06-20T15:06:13.986Z,10.13
2023-06-20T15:08:41.102Z,9.93
2023-06-20T15:11:07.881Z,9.60
2023-06-20T15:13:35.006Z,7.55
2023-06-20T15:16:01.844Z,7.68
2023-06-20T15:18:29.032Z,7.65
2023-06-20T15:20:56.032Z,8.68
2023-06-20T15:23:23.161Z,7.45
2023-06-20T15:25:50.069Z,7.75
2023-06-20T15:28:18.343Z,6.57
2023-06-20T15:30:45.216Z,6.18
2023-06-20T15:33:12.365Z,6.30
2023-06-20T15:35:42.870Z,6.40
2023-06-20T15:38:09.971Z,7.18
2023-06-20T15:40:36.751Z,5.72
2023-06-20T15:43:03.931Z,6.80
2023-06-20T15:45:33.338Z,5.20
2023-06-20T15:48:01.504Z,6.00
2023-06-20T15:50:28.624Z,5.72
2023-06-20T15:52:56.018Z,5.93
2023-06-20T15:55:22.913Z,6.07
2023-06-20T15:57:50.069Z,6.55
2023-06-20T16:00:17.358Z,7.35
2023-06-20T16:02:44.584Z,6.78
2023-06-20T16:05:11.473Z,6.05
2023-06-20T16:07:38.709Z,6.82
2023-06-20T16:10:06.062Z,6.05
2023-06-20T16:12:33.418Z,5.97
2023-06-20T16:15:00.730Z,6.35
2023-06-20T16:17:27.943Z,5.80
2023-06-20T16:19:54.899Z,6.85
2023-06-20T16:22:22.105Z,5.95
2023-06-20T16:24:49.042Z,6.35
2023-06-20T16:27:16.183Z,6.35
2023-06-20T16:29:43.036Z,5.40
2023-06-20T16:32:10.162Z,6.20
2023-06-20T16:34:37.034Z,6.35
2023-06-20T16:37:04.429Z,7.07
2023-06-20T16:39:31.406Z,5.82
2023-06-20T16:41:58.510Z,6.10
2023-06-20T16:44:25.338Z,5.60
2023-06-20T16:46:52.531Z,6.32
2023-06-20T16:49:19.379Z,5.75
2023-06-20T16:51:46.507Z,6.15
2023-06-20T16:54:13.374Z,6.50
2023-06-20T16:56:40.569Z,5.60
2023-06-20T16:59:07.446Z,5.43
2023-06-20T17:01:37.755Z,5.38
2023-06-20T17:04:06.116Z,6.20
2023-06-20T17:06:33.496Z,6.03
2023-06-20T17:09:00.446Z,5.35
2023-06-20T17:11:27.678Z,5.63
2023-06-20T17:13:54.545Z,6.22
2023-06-20T17:16:22.076Z,6.28
2023-06-20T17:18:49.180Z,6.63
2023-06-20T17:21:16.328Z,6.88
2023-06-20T17:23:43.121Z,6.10
2023-06-20T17:26:11.418Z,5.80
2023-06-20T17:28:39.715Z,5.97
2023-06-20T17:31:06.940Z,6.18
2023-06-20T17:33:33.966Z,6.65
2023-06-20T17:36:01.121Z,6.90
2023-06-20T17:38:27.999Z,7.50
2023-06-20T17:40:55.117Z,7.03
2023-06-20T17:43:22.831Z,7.30
2023-06-20T17:45:50.370Z,7.05
2023-06-20T17:48:17.236Z,7.00
2023-06-20T17:50:44.361Z,7.88
2023-06-20T17:53:11.146Z,7.40
2023-06-20T17:55:38.417Z,6.93
2023-06-20T17:58:05.302Z,7.20
2023-06-20T18:00:32.606Z,7.68
2023-06-20T18:03:00.456Z,7.50
2023-06-20T18:05:27.807Z,7.93
2023-06-20T18:07:54.634Z,8.10
2023-06-20T18:10:24.374Z,7.70
2023-06-20T18:12:52.277Z,8.57
2023-06-20T18:15:20.932Z,8.50
2023-06-20T18:17:48.059Z,7.88
2023-06-20T18:20:16.416Z,8.20
2023-06-20T18:22:44.137Z,9.35
2023-06-20T18:25:11.609Z,9.10
2023-06-20T18:27:39.655Z,8.38
2023-06-20T18:30:08.979Z,9.82
2023-06-20T18:32:35.930Z,8.10
2023-06-20T18:35:03.906Z,8.40
2023-06-20T18:37:30.789Z,8.40
2023-06-20T18:39:57.902Z,8.40
2023-06-20T18:42:24.795Z,7.78
2023-06-20T18:44:52.115Z,7.57
2023-06-20T18:47:18.934Z,9.02
2023-06-20T18:49:46.086Z,7.95
2023-06-20T18:52:12.906Z,8.57
2023-06-20T18:54:39.992Z,7.07
2023-06-20T18:57:08.447Z,6.63
2023-06-20T18:59:35.801Z,7.70
2023-06-20T19:02:02.664Z,6.90
2023-06-20T19:04:29.955Z,6.95
2023-06-20T19:06:57.560Z,7.80
2023-06-20T19:09:30.840Z,6.25
2023-06-20T19:11:59.283Z,6.40
2023-06-20T19:14:26.428Z,6.32
2023-06-20T19:16:53.369Z,5.90
2023-06-20T19:19:20.648Z,5.78
2023-06-20T19:21:47.538Z,5.95
2023-06-20T19:24:15.045Z,6.50
2023-06-20T19:26:43.931Z,6.10
2023-06-20T19:29:13.187Z,6.22
2023-06-20T19:31:45.221Z,5.72
2023-06-20T19:34:12.445Z,6.57
2023-06-20T19:36:39.595Z,6.30
2023-06-20T19:39:06.852Z,6.35
2023-06-20T19:41:33.768Z,6.00
2023-06-20T19:44:00.919Z,6.20
2023-06-20T19:46:27.795Z,6.45
2023-06-20T19:48:55.071Z,6.10
2023-06-20T19:51:21.920Z,5.85
2023-06-20T19:53:49.103Z,7.05
2023-06-20T19:56:15.932Z,7.32
2023-06-20T19:58:44.300Z,7.45
2023-06-20T20:01:11.282Z,7.93
2023-06-20T20:03:38.530Z,8.75
2023-06-20T20:06:05.436Z,8.27
2023-06-20T20:08:32.696Z,9.23
2023-06-20T20:10:59.769Z,8.98
2023-06-20T20:13:26.895Z,9.70
2023-06-20T20:15:53.742Z,8.52
2023-06-20T20:18:20.900Z,9.32
2023-06-20T20:20:47.711Z,8.95
2023-06-20T20:23:14.822Z,9.27
2023-06-20T20:25:41.705Z,8.70
2023-06-20T20:28:09.838Z,9.45
2023-06-20T20:30:36.654Z,9.43
2023-06-20T20:33:03.874Z,9.82
2023-06-20T20:35:30.696Z,10.27
2023-06-20T20:37:57.807Z,9.38
2023-06-20T20:40:26.357Z,9.10
2023-06-20T20:42:53.868Z,9.45
2023-06-20T20:45:20.739Z,8.85
2023-06-20T20:47:48.189Z,8.45
2023-06-20T20:50:15.224Z,9.00
2023-06-20T20:52:42.317Z,9.80
2023-06-20T20:55:12.152Z,9.73
2023-06-20T20:57:39.908Z,9.88
2023-06-20T21:00:11.336Z,8.95
2023-06-20T21:02:38.688Z,9.68
2023-06-20T21:05:05.590Z,8.93
2023-06-20T21:07:32.727Z,9.52
2023-06-20T21:09:59.542Z,9.75
2023-06-20T21:12:26.738Z,8.95
2023-06-20T21:14:53.622Z,8.55
2023-06-20T21:17:20.762Z,9.30
2023-06-20T21:19:47.671Z,8.90
2023-06-20T21:22:14.816Z,8.75
2023-06-20T21:24:41.813Z,9.48
2023-06-20T21:27:08.999Z,9.23
2023-06-20T21:29:35.800Z,9.13
2023-06-20T21:32:03.036Z,9.77
2023-06-20T21:34:29.847Z,9.05
2023-06-20T21:36:56.953Z,9.27
2023-06-20T21:39:23.794Z,10.02
2023-06-20T21:41:50.935Z,9.55
2023-06-20T21:44:17.727Z,9.40
2023-06-20T21:46:45.000Z,9.68
2023-06-20T21:49:11.781Z,10.15
2023-06-20T21:51:38.878Z,10.18
2023-06-20T21:54:05.861Z,10.15
2023-06-20T21:56:32.986Z,8.90
2023-06-20T21:58:59.808Z,9.60
2023-06-20T22:01:26.908Z,9.82
2023-06-20T22:03:53.765Z,9.95
2023-06-20T22:06:21.025Z,9.70
2023-06-20T22:08:47.918Z,9.63
2023-06-20T22:11:15.017Z,10.23
2023-06-20T22:13:41.833Z,9.90
2023-06-20T22:16:08.944Z,9.75
2023-06-20T22:18:35.919Z,10.63
2023-06-20T22:21:04.616Z,9.98
2023-06-20T22:23:31.491Z,10.90
2023-06-20T22:25:58.621Z,10.38
2023-06-20T22:28:25.650Z,9.55
2023-06-20T22:30:52.977Z,10.10
2023-06-20T22:33:19.834Z,10.38
2023-06-20T22:35:46.969Z,9.70
2023-06-20T22:38:16.107Z,9.85
2023-06-20T22:40:44.822Z,10.52
2023-06-20T22:43:14.874Z,10.15
2023-06-20T22:45:42.235Z,10.40
2023-06-20T22:48:09.531Z,9.65
2023-06-20T22:50:38.061Z,10.32
2023-06-20T22:53:05.350Z,10.15
2023-06-20T22:55:38.466Z,9.68
2023-06-20T22:58:05.770Z,9.90
2023-06-20T23:00:35.706Z,9.15
2023-06-20T23:03:02.727Z,9.60
2023-06-20T23:05:30.164Z,10.68
2023-06-20T23:07:58.530Z,10.38
2023-06-20T23:10:26.412Z,10.85
2023-06-20T23:12:53.542Z,10.68
2023-06-20T23:15:20.876Z,10.43
2023-06-20T23:17:47.811Z,10.15
2023-06-20T23:20:15.036Z,10.00
2023-06-20T23:22:42.033Z,10.23
2023-06-20T23:25:13.026Z,9.63
2023-06-20T23:27:40.601Z,11.10
2023-06-20T23:30:11.719Z,9.85
2023-06-20T23:32:42.217Z,10.18
2023-06-20T23:35:09.407Z,10.05
2023-06-20T23:37:39.500Z,10.30
2023-06-20T23:40:14.021Z,9.48
2023-06-20T23:42:41.312Z,9.27
2023-06-20T23:45:10.269Z,9.82
2023-06-20T23:47:37.357Z,9.98
2023-06-20T23:50:04.870Z,9.63
2023-06-20T23:52:33.552Z,9.80
2023-06-20T23:55:01.474Z,9.48
2023-06-20T23:57:31.786Z,9.50
